Time;durP1;ratioP1;P1;durP2;ratioP2;P2;SDS_P1;SDS_P2;PMS_P1;PMS_P2;Temp;Humidity;BMP_temperature;BMP_pressure;BME280_temperature;BME280_humidity;BME280_pressure;Samples;Min_cycle;Max_cycle;Signal;HPM_P1;HPM_P2
2021/04/30 00:00:26;;;;;;;0.30;0.20;;;;;;;4.61;93.17;99828.88;5011095;28;20511;-48
2021/04/30 00:02:52;;;;;;;0.30;0.20;;;;;;;4.57;92.63;99821.91;5013733;28;20472;-48
2021/04/30 00:05:18;;;;;;;0.30;0.20;;;;;;;4.44;93.54;99828.19;5013789;28;20872;-49
2021/04/30 00:07:45;;;;;;;0.30;0.20;;;;;;;4.54;93.98;99826.34;5013686;28;20879;-48
2021/04/30 00:10:12;;;;;;;0.30;0.20;;;;;;;4.58;93.58;99825.41;5013701;28;20510;-48
2021/04/30 00:12:38;;;;;;;0.40;0.30;;;;;;;4.32;93.67;99830.97;5013472;28;20530;-48
2021/04/30 00:15:05;;;;;;;0.30;0.20;;;;;;;4.30;94.11;99824.84;5000561;28;20448;-49
2021/04/30 00:17:31;;;;;;;0.40;0.40;;;;;;;4.32;94.17;99823.94;5013673;28;20456;-48
2021/04/30 00:19:57;;;;;;;0.30;0.20;;;;;;;4.33;94.17;99836.19;5013881;28;20448;-48
2021/04/30 00:22:23;;;;;;;0.53;0.53;;;;;;;4.41;93.51;99834.38;5013240;28;20526;-48
2021/04/30 00:24:50;;;;;;;0.30;0.20;;;;;;;4.65;92.44;99829.69;4996150;28;20503;-48
2021/04/30 00:27:16;;;;;;;0.93;0.50;;;;;;;4.13;92.81;99828.53;5013377;28;20958;-48
2021/04/30 00:29:42;;;;;;;0.30;0.20;;;;;;;4.05;94.47;99827.72;5013381;28;20510;-48
2021/04/30 00:32:08;;;;;;;0.30;0.20;;;;;;;4.05;93.73;99822.47;5013027;28;20480;-48
2021/04/30 00:34:36;;;;;;;0.30;0.20;;;;;;;3.99;94.36;99821.66;5013673;28;20571;-48
2021/04/30 00:37:02;;;;;;;0.30;0.20;;;;;;;4.03;93.65;99818.97;5013215;28;20961;-49
2021/04/30 00:39:28;;;;;;;0.30;0.20;;;;;;;3.98;94.97;99820.78;5013138;28;20942;-48
2021/04/30 00:41:54;;;;;;;0.30;0.20;;;;;;;4.19;94.76;99824.94;5013257;28;20468;-48
2021/04/30 00:44:20;;;;;;;0.30;0.20;;;;;;;4.16;94.46;99825.00;4982475;28;20455;-48
2021/04/30 00:46:47;;;;;;;0.30;0.20;;;;;;;4.14;94.68;99822.38;5013097;28;20935;-48
2021/04/30 00:49:13;;;;;;;0.30;0.20;;;;;;;4.34;91.80;99816.03;5013138;28;20455;-48
2021/04/30 00:51:39;;;;;;;0.30;0.20;;;;;;;4.16;93.76;99825.88;5012792;28;20472;-47
2021/04/30 00:54:05;;;;;;;0.30;0.20;;;;;;;4.31;93.26;99830.09;5013117;28;20492;-49
2021/04/30 00:56:33;;;;;;;0.30;0.20;;;;;;;4.03;94.66;99832.13;5013137;28;20448;-48
2021/04/30 00:59:00;;;;;;;0.30;0.17;;;;;;;3.94;96.20;99833.97;4999797;28;20449;-47
2021/04/30 01:01:27;;;;;;;0.30;0.20;;;;;;;3.92;94.99;99839.25;5012898;28;20548;-48
2021/04/30 01:03:53;;;;;;;0.30;0.20;;;;;;;3.81;95.13;99838.47;5012881;28;20472;-48
2021/04/30 01:06:20;;;;;;;0.30;0.20;;;;;;;3.83;94.83;99841.94;5015429;28;20514;-50
2021/04/30 01:08:47;;;;;;;0.30;0.20;;;;;;;3.68;95.09;99840.31;5014496;28;20448;-48
2021/04/30 01:11:13;;;;;;;0.30;0.20;;;;;;;3.75;95.81;99849.03;5016047;28;20449;-48
2021/04/30 01:13:39;;;;;;;0.30;0.20;;;;;;;3.97;94.61;99844.44;5011737;28;20897;-48
2021/04/30 01:16:06;;;;;;;0.40;0.40;;;;;;;3.78;95.52;99865.66;5012263;28;20448;-50
2021/04/30 01:18:47;;;;;;;0.30;0.20;;;;;;;3.51;95.09;99858.84;5019645;28;20452;-49
2021/04/30 01:21:14;;;;;;;0.30;0.10;;;;;;;3.26;96.76;99862.50;5022078;28;20471;-48
2021/04/30 01:23:53;;;;;;;0.50;0.47;;;;;;;3.52;96.50;99859.72;5022516;28;20464;-48
2021/04/30 01:26:20;;;;;;;10.03;1.23;;;;;;;3.77;95.44;99860.41;5021406;28;21020;-48
2021/04/30 01:28:47;;;;;;;0.30;0.20;;;;;;;3.62;96.70;99850.00;5019055;28;21043;-49
2021/04/30 01:31:17;;;;;;;0.30;0.20;;;;;;;3.90;97.32;99851.53;5015398;28;20456;-48
2021/04/30 01:33:52;;;;;;;0.30;0.20;;;;;;;3.92;96.66;99851.50;5012948;28;20867;-48
2021/04/30 01:36:18;;;;;;;0.30;0.20;;;;;;;3.95;97.50;99859.38;5012882;28;20456;-48
2021/04/30 01:38:45;;;;;;;0.30;0.20;;;;;;;3.79;97.57;99856.88;5011719;28;21021;-48
2021/04/30 01:41:11;;;;;;;0.30;0.20;;;;;;;3.90;97.07;99864.69;5012670;28;20452;-48
2021/04/30 01:43:37;;;;;;;0.30;0.20;;;;;;;3.99;96.37;99863.75;4999999;28;20445;-48
2021/04/30 01:46:05;;;;;;;0.30;0.20;;;;;;;3.69;96.54;99862.22;5012132;28;20510;-48
2021/04/30 01:48:33;;;;;;;0.30;0.20;;;;;;;3.70;98.10;99867.47;5012670;28;20452;-48
2021/04/30 01:51:01;;;;;;;0.30;0.20;;;;;;;3.58;98.57;99864.94;5012191;28;20448;-49
2021/04/30 01:53:29;;;;;;;0.73;0.73;;;;;;;3.57;98.01;99868.44;5012498;28;21079;-49
2021/04/30 01:55:56;;;;;;;0.30;0.13;;;;;;;3.59;98.07;99863.19;5012542;28;20448;-48
2021/04/30 01:58:23;;;;;;;0.30;0.20;;;;;;;3.40;98.53;99872.94;4999625;28;20787;-48
2021/04/30 02:00:51;;;;;;;0.30;0.20;;;;;;;3.42;98.21;99866.78;5012782;28;20448;-48
2021/04/30 02:03:17;;;;;;;1.47;1.47;;;;;;;3.38;98.53;99872.06;5012356;28;20527;-48
2021/04/30 02:05:44;;;;;;;0.30;0.20;;;;;;;3.51;97.29;99881.63;5012546;28;20455;-48
2021/04/30 02:08:11;;;;;;;0.30;0.20;;;;;;;3.49;98.67;99878.13;5012475;28;20456;-48
2021/04/30 02:10:39;;;;;;;0.30;0.20;;;;;;;3.19;97.11;99892.31;5012397;28;20941;-48
2021/04/30 02:13:05;;;;;;;0.30;0.20;;;;;;;2.97;98.05;99894.16;5012824;28;20568;-48
2021/04/30 02:15:37;;;;;;;0.30;0.20;;;;;;;2.94;99.12;99889.81;5004718;28;20950;-48
2021/04/30 02:18:04;;;;;;;0.30;0.10;;;;;;;2.97;99.82;99891.53;5015968;28;20458;-49
2021/04/30 02:20:31;;;;;;;0.30;0.20;;;;;;;3.13;100.00;99884.47;4999150;28;20937;-48
2021/04/30 02:22:58;;;;;;;0.30;0.20;;;;;;;3.06;100.00;99891.50;5015713;28;20472;-48
2021/04/30 02:25:25;;;;;;;0.30;0.20;;;;;;;3.13;99.69;99893.22;5016041;28;20937;-48
2021/04/30 02:27:53;;;;;;;0.30;0.20;;;;;;;3.15;99.33;99899.34;5016041;28;20460;-48
2021/04/30 02:30:21;;;;;;;0.30;0.20;;;;;;;3.20;99.95;99899.31;5016124;28;20453;-48
2021/04/30 02:32:49;;;;;;;0.30;0.20;;;;;;;3.20;100.00;99900.19;5017019;28;20484;-49
2021/04/30 02:35:18;;;;;;;0.30;0.20;;;;;;;3.05;98.58;99895.03;5016668;28;20467;-49
2021/04/30 02:37:46;;;;;;;0.30;0.20;;;;;;;2.96;99.16;99887.16;5018612;28;20452;-49
2021/04/30 02:40:15;;;;;;;0.30;0.20;;;;;;;3.03;97.97;99886.28;5019614;28;20945;-49
2021/04/30 02:42:43;;;;;;;0.30;0.20;;;;;;;2.83;99.48;99877.59;5014785;28;20524;-50
2021/04/30 02:45:10;;;;;;;0.30;0.20;;;;;;;3.04;99.39;99874.03;5008463;28;20448;-49
2021/04/30 02:47:37;;;;;;;0.30;0.20;;;;;;;3.11;98.59;99876.59;5015363;28;20449;-49
2021/04/30 02:50:06;;;;;;;0.30;0.20;;;;;;;3.10;99.44;99874.84;5014347;28;20453;-49
2021/04/30 02:52:32;;;;;;;0.30;0.20;;;;;;;3.03;98.05;99874.91;5015010;28;20469;-49
2021/04/30 02:54:59;;;;;;;0.30;0.20;;;;;;;2.96;99.25;99874.03;5015291;28;20496;-49
2021/04/30 02:57:27;;;;;;;0.30;0.20;;;;;;;2.85;97.94;99867.97;5009488;28;20458;-50
2021/04/30 02:59:54;;;;;;;0.30;0.10;;;;;;;2.93;98.48;99876.69;4993706;28;20453;-49
2021/04/30 03:02:20;;;;;;;0.30;0.20;;;;;;;2.80;97.92;99875.88;5017176;28;20531;-49
2021/04/30 03:04:46;;;;;;;0.40;0.20;;;;;;;2.71;99.17;99880.28;5016180;28;20528;-49
2021/04/30 03:07:12;;;;;;;0.30;0.20;;;;;;;2.57;100.00;99881.19;5016317;28;20459;-49
2021/04/30 03:09:38;;;;;;;0.30;0.20;;;;;;;2.46;100.00;99890.81;5015793;28;20453;-49
2021/04/30 03:12:05;;;;;;;0.30;0.10;;;;;;;2.68;99.72;99889.03;5015641;28;20476;-49
2021/04/30 03:14:32;;;;;;;0.30;0.20;;;;;;;2.29;100.00;99884.75;5003404;28;20528;-49
2021/04/30 03:16:58;;;;;;;0.30;0.20;;;;;;;2.40;100.00;99880.38;5015168;28;20448;-49
2021/04/30 03:19:24;;;;;;;0.30;0.10;;;;;;;2.54;100.00;99875.97;5015432;28;20480;-49
2021/04/30 03:21:51;;;;;;;0.40;0.40;;;;;;;2.48;100.00;99878.59;5014821;28;21063;-49
2021/04/30 03:24:17;;;;;;;0.30;0.20;;;;;;;2.66;100.00;99878.53;5013902;28;20452;-49
2021/04/30 03:26:43;;;;;;;0.30;0.20;;;;;;;2.67;100.00;99876.78;4997620;28;20514;-49
2021/04/30 03:29:09;;;;;;;0.40;0.40;;;;;;;2.44;100.00;99868.97;5014887;28;20510;-49
2021/04/30 03:31:36;;;;;;;0.30;0.20;;;;;;;2.48;100.00;99859.38;5014611;28;20492;-49
2021/04/30 03:34:02;;;;;;;0.30;0.20;;;;;;;2.45;100.00;99856.75;5014408;28;20488;-49
2021/04/30 03:36:28;;;;;;;0.33;0.27;;;;;;;2.71;100.00;99865.41;5014459;28;21015;-49
2021/04/30 03:38:54;;;;;;;0.30;0.20;;;;;;;2.55;99.76;99864.59;5014653;28;20463;-49
2021/04/30 03:41:20;;;;;;;0.30;0.20;;;;;;;2.57;99.45;99872.44;5014436;28;20469;-49
2021/04/30 03:43:47;;;;;;;0.30;0.10;;;;;;;2.56;99.72;99878.56;5002261;28;20453;-49
2021/04/30 03:46:13;;;;;;;0.30;0.10;;;;;;;2.26;100.00;99880.38;5013813;28;20918;-49
2021/04/30 03:48:39;;;;;;;0.30;0.20;;;;;;;2.28;100.00;99889.13;5014274;28;21004;-49
2021/04/30 03:51:06;;;;;;;0.30;0.20;;;;;;;2.19;100.00;99876.03;5014376;28;20823;-49
2021/04/30 03:53:32;;;;;;;0.30;0.20;;;;;;;2.28;100.00;99886.50;5014350;28;20488;-49
2021/04/30 03:55:58;;;;;;;0.30;0.10;;;;;;;2.37;100.00;99881.25;5014389;28;20448;-49
2021/04/30 03:58:24;;;;;;;0.30;0.10;;;;;;;2.46;100.00;99885.56;5001177;28;20449;-49
2021/04/30 04:00:51;;;;;;;0.30;0.17;;;;;;;2.41;100.00;99887.34;5014326;28;20452;-49
2021/04/30 04:03:17;;;;;;;0.30;0.17;;;;;;;2.35;100.00;99885.63;5013664;28;20476;-49
2021/04/30 04:05:43;;;;;;;0.30;0.10;;;;;;;2.28;100.00;99888.25;5013941;28;20515;-49
2021/04/30 04:08:09;;;;;;;0.30;0.10;;;;;;;2.37;100.00;99888.25;5013887;28;20460;-49
2021/04/30 04:10:36;;;;;;;0.30;0.20;;;;;;;2.52;99.22;99885.59;5014022;28;20453;-50
2021/04/30 04:13:16;;;;;;;0.30;0.10;;;;;;;2.78;98.60;99877.63;5012436;28;20527;-50
2021/04/30 04:15:43;;;;;;;0.30;0.10;;;;;;;3.35;100.00;99885.22;5003624;28;20461;-50
2021/04/30 04:18:09;;;;;;;0.30;0.20;;;;;;;2.67;100.00;99882.03;5013934;28;20456;-50
2021/04/30 04:20:36;;;;;;;0.30;0.20;;;;;;;3.12;100.00;99877.47;5013651;28;20836;-50
2021/04/30 04:23:02;;;;;;;0.30;0.20;;;;;;;3.47;100.00;99872.88;5013589;28;20472;-50
2021/04/30 04:25:29;;;;;;;0.30;0.30;;;;;;;3.88;100.00;99871.72;5013445;28;20503;-50
2021/04/30 04:27:55;;;;;;;0.40;0.40;;;;;;;4.24;98.37;99874.88;5013350;28;20482;-50
2021/04/30 04:30:23;;;;;;;0.30;0.20;;;;;;;4.25;98.53;99861.75;5013069;28;20510;-50
2021/04/30 04:32:49;;;;;;;0.30;0.20;;;;;;;3.52;99.84;99860.59;5013633;28;20480;-50
2021/04/30 04:35:16;;;;;;;0.30;0.20;;;;;;;3.33;100.00;99876.50;5013168;28;20572;-49
2021/04/30 04:37:42;;;;;;;0.30;0.20;;;;;;;3.10;100.00;99887.97;5013723;28;20453;-50
2021/04/30 04:40:09;;;;;;;0.30;0.20;;;;;;;2.93;100.00;99887.19;5013452;28;20448;-49
2021/04/30 04:42:35;;;;;;;0.30;0.20;;;;;;;3.01;100.00;99889.75;5010400;28;20480;-49
2021/04/30 04:45:01;;;;;;;0.30;0.20;;;;;;;3.00;100.00;99891.53;5002744;28;20946;-49
2021/04/30 04:47:27;;;;;;;0.30;0.10;;;;;;;2.85;100.00;99902.09;5013211;28;20487;-49
2021/04/30 04:49:53;;;;;;;2.87;2.67;;;;;;;3.03;100.00;99899.41;5012962;28;20449;-50
2021/04/30 04:52:19;;;;;;;0.30;0.10;;;;;;;3.26;100.00;99892.25;5012957;28;20472;-50
2021/04/30 04:54:45;;;;;;;0.30;0.20;;;;;;;3.32;99.59;99907.13;5013050;28;20496;-50
2021/04/30 04:57:11;;;;;;;0.30;0.10;;;;;;;3.91;98.15;99907.63;5009138;28;20528;-50
2021/04/30 04:59:37;;;;;;;0.93;0.93;;;;;;;4.52;95.15;99912.31;5004023;28;20499;-51
2021/04/30 05:02:04;;;;;;;0.30;0.20;;;;;;;5.33;91.46;99910.44;5012815;28;20981;-55
2021/04/30 05:04:31;;;;;;;0.30;0.20;;;;;;;5.78;89.33;99912.47;5013182;28;20445;-51
2021/04/30 05:06:57;;;;;;;0.30;0.20;;;;;;;6.25;86.68;99919.66;5013161;28;20520;-50
2021/04/30 05:09:23;;;;;;;0.30;0.20;;;;;;;6.97;84.71;99910.38;5012838;28;20449;-50
2021/04/30 05:11:49;;;;;;;0.30;0.20;;;;;;;6.72;84.66;99917.94;5012155;28;21032;-50
2021/04/30 05:14:16;;;;;;;0.53;0.53;;;;;;;6.88;83.73;99911.44;4984865;28;20490;-51
2021/04/30 05:17:02;;;;;;;0.30;0.20;;;;;;;7.15;83.38;99910.03;4999711;28;20540;-52
2021/04/30 05:19:28;;;;;;;0.80;0.80;;;;;;;7.39;82.33;99914.75;5012371;28;20449;-52
2021/04/30 05:21:55;;;;;;;0.43;0.40;;;;;;;7.23;81.67;99918.66;4992936;28;20473;-50
2021/04/30 05:24:21;;;;;;;2.17;2.00;;;;;;;7.28;81.96;99914.16;5005877;28;20453;-50
2021/04/30 05:26:47;;;;;;;0.30;0.20;;;;;;;7.65;80.55;99916.84;5012456;28;20813;-51
2021/04/30 05:29:15;;;;;;;0.30;0.20;;;;;;;7.73;81.33;99920.19;5012525;28;20453;-51
2021/04/30 05:31:41;;;;;;;0.50;0.47;;;;;;;7.97;79.07;99924.03;5011811;28;20495;-51
2021/04/30 05:34:07;;;;;;;0.30;0.20;;;;;;;8.08;78.48;99922.88;4998887;28;20500;-50
2021/04/30 05:36:33;;;;;;;7.00;1.33;;;;;;;8.10;77.89;99918.47;5012409;28;20847;-51
2021/04/30 05:39:00;;;;;;;0.30;0.20;;;;;;;8.24;78.61;99911.91;5012613;28;20456;-50
2021/04/30 05:41:26;;;;;;;0.30;0.20;;;;;;;8.42;78.11;99900.00;5012438;28;20469;-51
2021/04/30 05:43:52;;;;;;;0.30;0.20;;;;;;;8.21;78.14;99906.66;4998930;28;20507;-51
2021/04/30 05:46:18;;;;;;;0.30;0.20;;;;;;;8.53;78.10;99900.59;4992720;28;21010;-51
2021/04/30 05:48:44;;;;;;;0.30;0.20;;;;;;;8.97;77.44;99903.81;5008863;28;20452;-51
2021/04/30 05:51:10;;;;;;;0.30;0.20;;;;;;;8.69;78.28;99902.81;5015894;28;20452;-51
2021/04/30 05:53:37;;;;;;;0.30;0.20;;;;;;;8.87;78.31;99903.19;5015702;28;20488;-51
2021/04/30 05:56:20;;;;;;;0.30;0.20;;;;;;;8.93;76.48;99896.00;5016107;28;20440;-51
2021/04/30 05:58:46;;;;;;;0.30;0.20;;;;;;;8.94;77.30;99903.91;5002700;28;20826;-51
2021/04/30 06:01:12;;;;;;;0.30;0.20;;;;;;;9.06;76.79;99906.19;5015903;28;20452;-51
2021/04/30 06:03:39;;;;;;;1.53;1.53;;;;;;;8.81;78.95;99897.19;5015704;28;20448;-51
2021/04/30 06:06:05;;;;;;;2.70;1.70;;;;;;;9.27;77.02;99893.22;5015693;28;20448;-51
2021/04/30 06:08:31;;;;;;;0.30;0.20;;;;;;;9.66;75.40;99889.34;5015760;28;20535;-51
2021/04/30 06:10:57;;;;;;;0.73;0.73;;;;;;;9.07;76.14;99889.38;5015617;28;20452;-51
2021/04/30 06:13:23;;;;;;;0.30;0.20;;;;;;;9.44;75.78;99890.91;5009149;28;20476;-51
2021/04/30 06:15:49;;;;;;;0.30;0.20;;;;;;;9.10;77.95;99891.94;5011261;28;20535;-51
2021/04/30 06:18:15;;;;;;;0.40;0.30;;;;;;;9.74;75.32;99897.97;5015421;28;20501;-51
2021/04/30 06:20:42;;;;;;;0.63;0.60;;;;;;;9.19;77.97;99904.06;5015431;28;20870;-51
2021/04/30 06:23:08;;;;;;;0.77;0.77;;;;;;;8.48;81.25;99913.06;5015654;28;20492;-51
2021/04/30 06:25:34;;;;;;;0.40;0.40;;;;;;;8.17;82.61;99914.72;5015291;28;21012;-51
2021/04/30 06:28:00;;;;;;;0.30;0.20;;;;;;;8.72;81.48;99910.69;5015305;28;20452;-52
2021/04/30 06:30:26;;;;;;;0.50;0.50;;;;;;;8.39;81.66;99908.03;4997718;28;20483;-52
2021/04/30 06:32:52;;;;;;;0.40;0.30;;;;;;;9.01;80.38;99899.28;5001848;28;20534;-51
2021/04/30 06:35:19;;;;;;;0.30;0.20;;;;;;;8.39;81.58;99896.56;5014914;28;20488;-52
2021/04/30 06:37:45;;;;;;;0.30;0.20;;;;;;;8.10;84.02;99908.75;5014906;28;20814;-52
2021/04/30 06:40:11;;;;;;;0.30;0.20;;;;;;;8.05;84.34;99899.16;5015009;28;20523;-52
2021/04/30 06:42:39;;;;;;;0.40;0.40;;;;;;;8.38;82.97;99903.66;5010694;28;20473;-52
2021/04/30 06:45:06;;;;;;;0.30;0.20;;;;;;;8.17;83.68;99912.09;5006382;28;20453;-52
2021/04/30 06:47:34;;;;;;;0.40;0.40;;;;;;;8.38;84.26;99906.28;5014798;28;20457;-52
2021/04/30 06:50:01;;;;;;;0.30;0.20;;;;;;;8.54;83.46;99910.28;5014910;28;20449;-52
2021/04/30 06:52:27;;;;;;;0.60;0.57;;;;;;;8.39;82.68;99907.16;5014783;28;20482;-52
2021/04/30 06:54:53;;;;;;;0.30;0.20;;;;;;;8.24;83.47;99905.75;5014652;28;20488;-52
2021/04/30 06:57:39;;;;;;;0.30;0.20;;;;;;;8.27;83.43;99895.94;5003531;28;20461;-51
2021/04/30 07:00:06;;;;;;;0.77;0.77;;;;;;;8.23;84.87;99901.38;5008837;28;20452;-52
2021/04/30 07:02:32;;;;;;;0.57;0.57;;;;;;;8.10;85.53;99911.38;5013396;28;20531;-52
2021/04/30 07:04:58;;;;;;;0.30;0.20;;;;;;;7.96;87.02;99916.16;5014406;28;20449;-51
2021/04/30 07:07:25;;;;;;;2.30;2.20;;;;;;;8.44;86.02;99905.25;5015749;28;20449;-51
2021/04/30 07:09:51;;;;;;;0.30;0.20;;;;;;;8.31;83.61;99913.47;5016828;28;20455;-52
2021/04/30 07:12:19;;;;;;;0.30;0.20;;;;;;;8.06;86.41;99914.13;5014419;28;20472;-51
2021/04/30 07:14:46;;;;;;;0.80;0.80;;;;;;;8.33;84.72;99916.09;5000821;28;20492;-52
2021/04/30 07:17:12;;;;;;;0.30;0.20;;;;;;;8.08;85.37;99918.47;5014631;28;20453;-52
2021/04/30 07:19:39;;;;;;;0.40;0.37;;;;;;;8.60;85.24;99912.75;5014480;28;20467;-52
2021/04/30 07:22:10;;;;;;;0.30;0.20;;;;;;;8.35;84.21;99914.28;5014281;28;20472;-51
2021/04/30 07:24:38;;;;;;;0.63;0.60;;;;;;;8.33;86.19;99916.94;5014227;28;20477;-52
2021/04/30 07:27:05;;;;;;;0.30;0.20;;;;;;;8.52;84.51;99911.22;5014068;28;20964;-51
2021/04/30 07:29:31;;;;;;;0.30;0.20;;;;;;;8.13;84.80;99913.94;5014013;28;20464;-51
2021/04/30 07:32:02;;;;;;;0.30;0.20;;;;;;;8.29;84.51;99911.78;5014063;28;20897;-51
2021/04/30 07:34:38;;;;;;;1.23;0.63;;;;;;;8.11;84.13;99920.19;5014048;28;20492;-51
2021/04/30 07:37:05;;;;;;;0.30;0.20;;;;;;;8.37;85.03;99919.59;5014026;28;20448;-52
2021/04/30 07:39:33;;;;;;;0.30;0.20;;;;;;;8.38;84.92;99919.53;5014010;28;20459;-51
2021/04/30 07:42:00;;;;;;;0.30;0.20;;;;;;;8.30;84.70;99924.13;4996412;28;20469;-51
2021/04/30 07:44:27;;;;;;;0.30;0.20;;;;;;;8.46;83.44;99925.50;5000734;28;20827;-51
2021/04/30 07:46:54;;;;;;;0.50;0.50;;;;;;;8.73;81.25;99920.38;5013936;28;20453;-51
2021/04/30 07:49:21;;;;;;;0.30;0.20;;;;;;;9.14;80.75;99919.22;5013586;28;20449;-51
2021/04/30 07:51:47;;;;;;;0.30;0.20;;;;;;;9.13;80.20;99921.00;5013719;28;20542;-51
2021/04/30 07:54:13;;;;;;;0.30;0.20;;;;;;;8.94;79.52;99909.19;5013549;28;20495;-52
2021/04/30 07:56:40;;;;;;;0.33;0.27;;;;;;;8.93;79.13;99904.81;5013539;28;20795;-51
2021/04/30 07:59:06;;;;;;;0.30;0.20;;;;;;;8.72;79.83;99915.97;5000143;28;21000;-52
2021/04/30 08:01:33;;;;;;;0.30;0.20;;;;;;;8.81;81.62;99921.03;5013706;28;20473;-52
2021/04/30 08:03:59;;;;;;;0.30;0.20;;;;;;;9.09;79.47;99929.97;5012382;28;20455;-52
2021/04/30 08:06:25;;;;;;;0.40;0.33;;;;;;;9.05;79.88;99935.41;5013423;28;20938;-52
2021/04/30 08:08:51;;;;;;;0.30;0.20;;;;;;;9.29;77.99;99940.00;5013332;28;20456;-51
2021/04/30 08:11:17;;;;;;;1.60;1.17;;;;;;;9.03;80.27;99940.72;5013075;28;20453;-52
2021/04/30 08:13:43;;;;;;;0.77;0.77;;;;;;;9.49;77.78;99947.38;5007016;28;20461;-51
2021/04/30 08:16:09;;;;;;;0.30;0.20;;;;;;;9.64;78.37;99943.41;5006435;28;20514;-52
2021/04/30 08:18:36;;;;;;;0.30;0.20;;;;;;;9.52;78.49;99939.31;5013076;28;20452;-52
2021/04/30 08:21:03;;;;;;;0.30;0.20;;;;;;;9.13;78.13;99950.16;5013109;28;20949;-51
2021/04/30 08:23:29;;;;;;;0.30;0.20;;;;;;;9.20;77.18;99942.94;5013110;28;20456;-51
2021/04/30 08:25:55;;;;;;;0.30;0.20;;;;;;;9.21;79.39;99949.97;5012957;28;20950;-51
2021/04/30 08:28:22;;;;;;;0.33;0.27;;;;;;;9.24;79.57;99947.22;5013053;28;20506;-52
2021/04/30 08:30:48;;;;;;;25.17;1.20;;;;;;;9.22;78.10;99949.06;5013042;28;20448;-51
2021/04/30 08:33:15;;;;;;;0.93;0.93;;;;;;;9.23;77.72;99950.78;5013568;28;20478;-51
2021/04/30 08:35:41;;;;;;;3.80;0.83;;;;;;;9.47;77.92;99936.81;5012702;28;21063;-52
2021/04/30 08:38:07;;;;;;;0.30;0.20;;;;;;;9.03;77.49;99940.72;5012819;28;20510;-51
2021/04/30 08:40:33;;;;;;;0.40;0.20;;;;;;;9.43;77.90;99936.94;5013005;28;20507;-51
2021/04/30 08:43:00;;;;;;;1.00;0.97;;;;;;;9.31;76.72;99926.69;5006132;28;20474;-51
2021/04/30 08:45:27;;;;;;;0.30;0.20;;;;;;;9.22;77.95;99919.88;5006758;28;20480;-52
2021/04/30 08:47:54;;;;;;;0.77;0.67;;;;;;;9.13;77.66;99933.41;5012852;28;20453;-51
2021/04/30 08:50:21;;;;;;;0.30;0.20;;;;;;;9.11;78.80;99933.44;5012892;28;20449;-52
2021/04/30 08:52:47;;;;;;;0.30;0.20;;;;;;;9.30;76.55;99927.59;5012662;28;20519;-52
2021/04/30 08:55:17;;;;;;;0.30;0.20;;;;;;;9.54;78.04;99926.88;5012786;28;20499;-51
2021/04/30 08:57:52;;;;;;;0.40;0.30;;;;;;;9.16;78.27;99933.28;5004928;28;20897;-51
2021/04/30 09:00:20;;;;;;;4.53;1.07;;;;;;;9.57;76.03;99932.06;5009005;28;20839;-51
2021/04/30 09:02:46;;;;;;;0.30;0.20;;;;;;;9.66;75.67;99937.13;5012467;28;20876;-52
2021/04/30 09:05:22;;;;;;;0.30;0.20;;;;;;;9.15;75.00;99937.72;5012163;28;20444;-51
2021/04/30 09:07:48;;;;;;;0.30;0.20;;;;;;;9.37;75.62;99945.94;5012753;28;20448;-51
2021/04/30 09:10:17;;;;;;;0.30;0.20;;;;;;;9.31;75.29;99950.53;5012540;28;20472;-51
2021/04/30 09:12:49;;;;;;;0.40;0.40;;;;;;;9.25;75.44;99956.03;5012478;28;20469;-52
2021/04/30 09:15:20;;;;;;;0.30;0.20;;;;;;;9.12;75.95;99955.53;4999169;28;20492;-51
2021/04/30 09:17:46;;;;;;;0.30;0.20;;;;;;;9.44;76.35;99949.28;5012342;28;20493;-52
2021/04/30 09:20:13;;;;;;;0.30;0.20;;;;;;;9.31;76.21;99946.13;5012321;28;20460;-51
2021/04/30 09:22:41;;;;;;;0.30;0.20;;;;;;;9.66;75.28;99944.22;5013857;28;20849;-51
2021/04/30 09:25:12;;;;;;;0.30;0.20;;;;;;;9.91;74.44;99942.53;5016236;28;20953;-51
2021/04/30 09:27:46;;;;;;;0.30;0.20;;;;;;;10.28;72.49;99941.38;5016112;28;20484;-52
2021/04/30 09:30:21;;;;;;;0.30;0.20;;;;;;;10.10;73.68;99937.50;5016591;28;20448;-52
2021/04/30 09:33:09;;;;;;;0.30;0.20;;;;;;;9.62;73.64;99938.13;5016113;28;20488;-51
2021/04/30 09:35:35;;;;;;;0.40;0.40;;;;;;;9.36;74.54;99936.25;5016090;28;20488;-51
2021/04/30 09:38:26;;;;;;;0.30;0.20;;;;;;;9.74;74.36;99928.94;5017309;28;20868;-49
2021/04/30 09:41:07;;;;;;;0.83;0.77;;;;;;;9.52;74.05;99928.72;5015917;28;20453;-49
2021/04/30 09:43:50;;;;;;;0.30;0.20;;;;;;;9.49;75.16;99926.16;5005546;28;20551;-50
2021/04/30 09:46:28;;;;;;;0.30;0.20;;;;;;;9.59;75.25;99924.06;4996579;28;20453;-50
2021/04/30 09:49:03;;;;;;;0.30;0.30;;;;;;;9.90;74.17;99924.00;5010705;28;20536;-50
2021/04/30 09:51:56;;;;;;;0.30;0.20;;;;;;;10.31;71.61;99920.91;5016004;28;20563;-49
2021/04/30 09:54:24;;;;;;;0.30;0.20;;;;;;;10.32;73.15;99917.31;5014133;28;20500;-50
2021/04/30 09:57:18;;;;;;;0.40;0.30;;;;;;;10.46;71.11;99913.34;5014904;28;20464;-50
2021/04/30 10:00:00;;;;;;;0.70;0.60;;;;;;;10.50;69.04;99910.50;5007621;28;20448;-49
2021/04/30 10:02:28;;;;;;;0.30;0.20;;;;;;;10.37;70.74;99903.88;5015676;28;20881;-49
2021/04/30 10:04:57;;;;;;;0.30;0.20;;;;;;;10.46;70.53;99894.75;5015649;28;21040;-49
2021/04/30 10:07:30;;;;;;;0.63;0.63;;;;;;;11.09;68.72;99896.00;5015736;28;20459;-51
2021/04/30 10:10:21;;;;;;;0.30;0.20;;;;;;;10.38;69.59;99882.56;5015388;28;20970;-49
2021/04/30 10:12:49;;;;;;;0.30;0.20;;;;;;;10.67;68.71;99892.19;5010329;28;20476;-49
2021/04/30 10:15:20;;;;;;;0.30;0.20;;;;;;;10.19;68.25;99892.06;5002404;28;20492;-49
2021/04/30 10:17:48;;;;;;;0.30;0.20;;;;;;;9.89;67.49;99890.41;5016181;28;20499;-50
2021/04/30 10:20:16;;;;;;;0.30;0.20;;;;;;;10.17;66.69;99885.94;5015316;28;20928;-49
2021/04/30 10:22:44;;;;;;;0.40;0.30;;;;;;;10.59;66.51;99878.31;5015145;28;20985;-51
2021/04/30 10:25:20;;;;;;;0.30;0.20;;;;;;;10.50;66.80;99875.97;5015570;28;20528;-50
2021/04/30 10:27:52;;;;;;;2.20;1.07;;;;;;;10.81;65.68;99878.41;5015285;28;20472;-50
2021/04/30 10:30:36;;;;;;;0.30;0.20;;;;;;;10.47;66.55;99877.88;5015530;28;20449;-49
2021/04/30 10:33:30;;;;;;;0.30;0.20;;;;;;;11.33;66.78;99871.13;5014343;28;20480;-49
2021/04/30 10:36:13;;;;;;;0.30;0.20;;;;;;;11.45;64.78;99869.81;5015049;28;20520;-49
2021/04/30 10:38:45;;;;;;;0.30;0.20;;;;;;;11.15;65.05;99871.84;5015079;28;20445;-49
2021/04/30 10:41:11;;;;;;;0.40;0.30;;;;;;;10.64;66.30;99860.41;5015031;28;20876;-49
2021/04/30 10:43:38;;;;;;;0.30;0.20;;;;;;;10.62;67.20;99856.06;5003679;28;20449;-49
2021/04/30 10:46:13;;;;;;;0.30;0.20;;;;;;;10.64;66.92;99852.44;5013476;28;20906;-49
2021/04/30 10:49:03;;;;;;;0.30;0.20;;;;;;;10.55;67.48;99851.88;5015505;28;20460;-49
2021/04/30 10:51:30;;;;;;;0.30;0.20;;;;;;;10.41;68.43;99851.50;5006439;28;20481;-49
2021/04/30 10:54:23;;;;;;;12.93;2.93;;;;;;;10.61;68.67;99854.34;5014692;28;20506;-48
2021/04/30 10:57:01;;;;;;;0.30;0.20;;;;;;;10.51;68.04;99850.25;5014007;28;20526;-49
2021/04/30 10:59:40;;;;;;;0.30;0.20;;;;;;;11.02;67.47;99851.97;5004212;28;20494;-49
2021/04/30 11:02:22;;;;;;;3.43;1.90;;;;;;;10.83;67.22;99852.66;5014970;28;20480;-51
2021/04/30 11:05:07;;;;;;;0.40;0.40;;;;;;;11.24;68.04;99855.56;5014656;28;20480;-52
2021/04/30 11:07:42;;;;;;;0.30;0.20;;;;;;;11.23;67.54;99851.13;4994967;28;20457;-52
2021/04/30 11:10:20;;;;;;;0.30;0.20;;;;;;;11.69;66.36;99849.34;5012027;28;20444;-52
2021/04/30 11:13:06;;;;;;;0.30;0.20;;;;;;;11.64;65.46;99851.31;5012202;28;20560;-52
2021/04/30 11:15:53;;;;;;;0.30;0.20;;;;;;;11.31;66.15;99846.38;5003250;28;20997;-52
2021/04/30 11:18:24;;;;;;;0.40;0.40;;;;;;;12.00;65.09;99856.97;5014304;28;20465;-51
2021/04/30 11:21:00;;;;;;;0.30;0.20;;;;;;;12.11;65.63;99863.59;5014620;28;20455;-51
2021/04/30 11:23:28;;;;;;;0.30;0.20;;;;;;;12.21;65.53;99855.22;5014423;28;20480;-52
2021/04/30 11:25:58;;;;;;;0.40;0.30;;;;;;;12.27;64.61;99861.16;4997840;28;20452;-52
2021/04/30 11:28:30;;;;;;;0.30;0.20;;;;;;;12.00;63.32;99857.84;5015382;28;20463;-52
2021/04/30 11:31:25;;;;;;;0.30;0.20;;;;;;;12.92;63.73;99851.19;5013441;28;20453;-51
2021/04/30 11:34:11;;;;;;;0.30;0.20;;;;;;;12.58;61.83;99874.00;5014275;28;21041;-51
2021/04/30 11:36:39;;;;;;;0.30;0.20;;;;;;;12.51;62.70;99869.91;4994818;28;20473;-49
2021/04/30 11:39:21;;;;;;;0.43;0.40;;;;;;;12.70;61.23;99868.16;4992145;28;20453;-49
2021/04/30 11:41:49;;;;;;;0.30;0.20;;;;;;;12.11;63.18;99876.91;5014276;28;20550;-52
2021/04/30 11:44:17;;;;;;;0.40;0.30;;;;;;;12.37;63.61;99883.81;4983524;28;20452;-52
2021/04/30 11:46:45;;;;;;;0.30;0.20;;;;;;;12.14;63.30;99882.09;5013926;28;20456;-52